createdAt,value
2024-04-07T17:59:51.848Z,23.25
2024-04-07T18:02:18.890Z,23.19
2024-04-07T18:04:45.804Z,23.28
2024-04-07T18:07:13.657Z,23.38
2024-04-07T18:09:40.998Z,23.31
2024-04-07T18:12:08.000Z,23.16
2024-04-07T18:14:34.998Z,23.03
2024-04-07T18:17:01.875Z,22.92
2024-04-07T18:19:28.759Z,22.87
2024-04-07T18:21:55.669Z,22.95
2024-04-07T18:24:22.585Z,22.89
2024-04-07T18:26:49.381Z,23.01
2024-04-07T18:29:16.882Z,22.95
2024-04-07T18:31:43.928Z,22.85
2024-04-07T18:34:11.596Z,22.81
2024-04-07T18:36:41.077Z,22.88
2024-04-07T18:39:09.390Z,22.84
2024-04-07T18:41:36.738Z,22.96
2024-04-07T18:44:03.973Z,23.00
2024-04-07T18:46:30.865Z,22.97
2024-04-07T18:48:59.064Z,22.95
2024-04-07T18:51:33.239Z,23.02
2024-04-07T18:54:03.255Z,23.02
2024-04-07T18:56:30.701Z,23.10
2024-04-07T18:58:58.157Z,22.92
2024-04-07T19:01:25.119Z,22.83
2024-04-07T19:03:52.298Z,22.84
2024-04-07T19:06:19.146Z,22.83
2024-04-07T19:08:46.311Z,22.74
2024-04-07T19:11:17.046Z,22.64
2024-04-07T19:13:53.585Z,22.57
2024-04-07T19:16:20.683Z,22.58
2024-04-07T19:18:48.801Z,22.70
2024-04-07T19:21:15.875Z,22.62
2024-04-07T19:23:42.789Z,22.83
2024-04-07T19:26:09.725Z,22.61
2024-04-07T19:28:41.756Z,22.58
2024-04-07T19:31:13.264Z,22.59
2024-04-07T19:33:40.991Z,22.53
2024-04-07T19:36:08.173Z,22.51
2024-04-07T19:38:35.692Z,22.49
2024-04-07T19:41:02.952Z,22.40
2024-04-07T19:43:29.974Z,22.45
2024-04-07T19:45:57.446Z,22.43
2024-04-07T19:48:25.439Z,22.42
2024-04-07T19:50:53.980Z,22.45
2024-04-07T19:53:24.098Z,22.38
2024-04-07T19:55:51.513Z,22.35
2024-04-07T19:58:19.849Z,22.34
2024-04-07T20:00:47.623Z,22.35
2024-04-07T20:03:19.320Z,22.36
2024-04-07T20:05:47.648Z,22.28
2024-04-07T20:08:14.668Z,22.23
2024-04-07T20:10:43.537Z,22.24
2024-04-07T20:13:11.606Z,22.21
2024-04-07T20:15:39.924Z,22.20
2024-04-07T20:18:07.174Z,22.28
2024-04-07T20:20:34.836Z,22.24
2024-04-07T20:23:02.037Z,22.14
2024-04-07T20:25:29.078Z,22.18
2024-04-07T20:27:56.117Z,22.13
2024-04-07T20:30:23.083Z,22.08
2024-04-07T20:32:49.952Z,22.03
2024-04-07T20:35:16.850Z,21.99
2024-04-07T20:37:43.990Z,21.96
2024-04-07T20:40:11.109Z,21.89
2024-04-07T20:42:38.265Z,21.93
2024-04-07T20:45:05.351Z,21.88
2024-04-07T20:47:32.612Z,21.86
2024-04-07T20:50:01.596Z,21.89
2024-04-07T20:52:28.606Z,21.98
2024-04-07T20:54:56.096Z,21.85
2024-04-07T20:57:23.075Z,21.93
2024-04-07T20:59:50.174Z,21.87
2024-04-07T21:04:45.883Z,21.99
2024-04-07T21:07:13.110Z,21.98
2024-04-07T21:09:40.062Z,22.00
2024-04-07T21:12:07.508Z,21.93
2024-04-07T21:14:34.319Z,21.89
2024-04-07T21:17:01.984Z,21.86
2024-04-07T21:19:28.874Z,21.80
2024-04-07T21:21:56.975Z,21.77
2024-04-07T21:24:24.561Z,21.79
2024-04-07T21:26:51.392Z,21.73
2024-04-07T21:29:18.228Z,21.82
2024-04-07T21:31:45.293Z,21.79
2024-04-07T21:34:12.183Z,21.63
2024-04-07T21:36:39.087Z,21.60
2024-04-07T21:39:05.924Z,21.62
2024-04-07T21:41:32.822Z,21.56
2024-04-07T21:43:59.624Z,21.55
2024-04-07T21:46:29.490Z,21.53
2024-04-07T21:48:59.508Z,21.64
2024-04-07T21:51:26.324Z,21.53
2024-04-07T21:53:53.203Z,21.56
2024-04-07T21:56:20.037Z,21.56
2024-04-07T21:58:46.864Z,21.51
2024-04-07T22:01:14.114Z,21.42
2024-04-07T22:03:40.964Z,21.43
2024-04-07T22:06:07.791Z,21.41
2024-04-07T22:08:34.947Z,21.31
2024-04-07T22:11:01.871Z,21.10
2024-04-07T22:13:28.957Z,21.03
2024-04-07T22:15:55.783Z,21.10
2024-04-07T22:18:26.664Z,20.96
2024-04-07T22:20:53.546Z,21.03
2024-04-07T22:23:20.473Z,21.07
2024-04-07T22:25:47.388Z,21.09
2024-04-07T22:28:14.264Z,21.07
2024-04-07T22:30:41.087Z,21.09
2024-04-07T22:33:09.083Z,21.13
2024-04-07T22:35:35.971Z,21.08
2024-04-07T22:38:02.888Z,21.07
2024-04-07T22:40:30.051Z,21.11
2024-04-07T22:42:57.003Z,21.05
2024-04-07T22:45:23.946Z,20.92
2024-04-07T22:47:50.875Z,20.91
2024-04-07T22:50:17.808Z,20.86
2024-04-07T22:52:44.661Z,20.85
2024-04-07T22:55:11.479Z,20.83
2024-04-07T22:57:38.928Z,20.82
2024-04-07T23:00:06.372Z,20.98
2024-04-07T23:02:33.583Z,21.03
2024-04-07T23:05:00.463Z,21.16
2024-04-07T23:07:27.840Z,21.05
2024-04-07T23:09:54.689Z,21.07
2024-04-07T23:12:21.543Z,21.09
2024-04-07T23:14:49.850Z,21.04
2024-04-07T23:17:16.881Z,21.09
2024-04-07T23:19:43.892Z,21.13
2024-04-07T23:22:11.152Z,21.08
2024-04-07T23:24:37.986Z,21.15
2024-04-07T23:27:05.083Z,20.86
2024-04-07T23:29:32.223Z,20.72
2024-04-07T23:32:00.451Z,20.77
2024-04-07T23:34:27.318Z,20.71
2024-04-07T23:36:54.230Z,20.69
2024-04-07T23:39:21.158Z,20.86
2024-04-07T23:41:47.943Z,20.96
2024-04-07T23:44:14.817Z,21.09
2024-04-07T23:46:41.643Z,21.16
2024-04-07T23:49:10.142Z,21.20
2024-04-07T23:51:36.957Z,21.25
2024-04-07T23:54:03.889Z,21.11
2024-04-07T23:56:30.829Z,20.69
2024-04-07T23:58:57.718Z,20.59
